Wyalusing, Wisconsin
Current Conditions -  °F | °C
As of 5:15 AM on Wednesday 26 Nov 2014 (Local Time) from KPDC Reporting Station
Scattered Clouds Scattered Clouds  
Wind Chill:   Ceiling: Unl
Heat Index: 17°   Visibility: 10mi
Dew Point: 13°   Wind: 6mph
Humidity: 86%   Direction: 90°E
Pressure: 30.08"   Gusts: NA
Location:  42.927°N, 91.0649°W
Report Text: KPDC 261115Z AUTO 09005KT 10SM SCT070 M08/M10 A3008 RMK AO2 T10841103
Loading
Personal Weather Stations






























Interactive Weather Map New forecast layout! Learn more

10-Day Weather Forecast

Advertisements
Track Severe Weather on mobile